sensor_id;sensor_type;location;lat;lon;timestamp;P1;durP1;ratioP1;P2;durP2;ratioP2
69401;SDS011;56589;51.992;5.924;2022-11-13T00:01:26;8.57;;;6.65;;
69401;SDS011;56589;51.992;5.924;2022-11-13T00:03:52;12.45;;;7.43;;
69401;SDS011;56589;51.992;5.924;2022-11-13T00:06:21;12.52;;;6.63;;
69401;SDS011;56589;51.992;5.924;2022-11-13T00:08:46;10.18;;;6.30;;
69401;SDS011;56589;51.992;5.924;2022-11-13T00:11:13;10.05;;;6.30;;
69401;SDS011;56589;51.992;5.924;2022-11-13T00:13:41;8.32;;;5.75;;
69401;SDS011;56589;51.992;5.924;2022-11-13T00:16:09;10.80;;;6.70;;
69401;SDS011;56589;51.992;5.924;2022-11-13T00:18:38;8.35;;;5.70;;
69401;SDS011;56589;51.992;5.924;2022-11-13T00:21:04;8.45;;;5.55;;
69401;SDS011;56589;51.992;5.924;2022-11-13T00:23:35;10.45;;;5.40;;
69401;SDS011;56589;51.992;5.924;2022-11-13T00:26:05;9.45;;;6.05;;
69401;SDS011;56589;51.992;5.924;2022-11-13T00:28:33;10.93;;;5.47;;
69401;SDS011;56589;51.992;5.924;2022-11-13T00:30:59;9.68;;;5.68;;
69401;SDS011;56589;51.992;5.924;2022-11-13T00:33:26;9.50;;;6.07;;
69401;SDS011;56589;51.992;5.924;2022-11-13T00:35:53;11.18;;;5.80;;
69401;SDS011;56589;51.992;5.924;2022-11-13T00:38:18;9.77;;;5.47;;
69401;SDS011;56589;51.992;5.924;2022-11-13T00:40:47;9.40;;;5.10;;
69401;SDS011;56589;51.992;5.924;2022-11-13T00:43:13;8.68;;;5.35;;
69401;SDS011;56589;51.992;5.924;2022-11-13T00:45:39;8.55;;;5.38;;
69401;SDS011;56589;51.992;5.924;2022-11-13T00:48:05;7.40;;;4.80;;
69401;SDS011;56589;51.992;5.924;2022-11-13T00:50:31;10.90;;;5.53;;
69401;SDS011;56589;51.992;5.924;2022-11-13T00:52:57;6.32;;;4.57;;
69401;SDS011;56589;51.992;5.924;2022-11-13T00:55:22;9.07;;;4.80;;
69401;SDS011;56589;51.992;5.924;2022-11-13T00:57:51;7.85;;;5.00;;
69401;SDS011;56589;51.992;5.924;2022-11-13T01:00:17;9.25;;;4.97;;
69401;SDS011;56589;51.992;5.924;2022-11-13T01:02:43;7.30;;;4.75;;
69401;SDS011;56589;51.992;5.924;2022-11-13T01:05:09;7.88;;;4.85;;
69401;SDS011;56589;51.992;5.924;2022-11-13T01:07:35;7.70;;;4.57;;
69401;SDS011;56589;51.992;5.924;2022-11-13T01:10:01;6.72;;;4.55;;
69401;SDS011;56589;51.992;5.924;2022-11-13T01:12:30;10.82;;;5.57;;
69401;SDS011;56589;51.992;5.924;2022-11-13T01:14:58;10.48;;;5.00;;
69401;SDS011;56589;51.992;5.924;2022-11-13T01:17:25;7.00;;;5.43;;
69401;SDS011;56589;51.992;5.924;2022-11-13T01:19:51;9.13;;;5.22;;
69401;SDS011;56589;51.992;5.924;2022-11-13T01:22:16;9.40;;;5.35;;
69401;SDS011;56589;51.992;5.924;2022-11-13T01:24:43;11.38;;;5.40;;
69401;SDS011;56589;51.992;5.924;2022-11-13T01:27:09;8.15;;;5.20;;
69401;SDS011;56589;51.992;5.924;2022-11-13T01:29:35;8.38;;;5.28;;
69401;SDS011;56589;51.992;5.924;2022-11-13T01:32:04;9.55;;;5.00;;
69401;SDS011;56589;51.992;5.924;2022-11-13T01:34:30;7.95;;;5.15;;
69401;SDS011;56589;51.992;5.924;2022-11-13T01:36:56;7.47;;;5.57;;
69401;SDS011;56589;51.992;5.924;2022-11-13T01:39:22;11.15;;;5.22;;
69401;SDS011;56589;51.992;5.924;2022-11-13T01:41:47;8.98;;;5.03;;
69401;SDS011;56589;51.992;5.924;2022-11-13T01:44:15;8.25;;;4.80;;
69401;SDS011;56589;51.992;5.924;2022-11-13T01:46:43;6.82;;;4.53;;
69401;SDS011;56589;51.992;5.924;2022-11-13T01:49:22;9.43;;;4.73;;
69401;SDS011;56589;51.992;5.924;2022-11-13T01:51:55;10.07;;;4.85;;
69401;SDS011;56589;51.992;5.924;2022-11-13T01:54:26;10.50;;;4.90;;
69401;SDS011;56589;51.992;5.924;2022-11-13T01:56:56;7.63;;;4.57;;
69401;SDS011;56589;51.992;5.924;2022-11-13T01:59:24;8.80;;;4.85;;
69401;SDS011;56589;51.992;5.924;2022-11-13T02:01:55;7.82;;;4.93;;
69401;SDS011;56589;51.992;5.924;2022-11-13T02:04:23;10.02;;;5.05;;
69401;SDS011;56589;51.992;5.924;2022-11-13T02:06:51;9.10;;;5.18;;
69401;SDS011;56589;51.992;5.924;2022-11-13T02:09:22;10.50;;;4.90;;
69401;SDS011;56589;51.992;5.924;2022-11-13T02:11:53;9.85;;;5.00;;
69401;SDS011;56589;51.992;5.924;2022-11-13T02:14:20;9.05;;;4.90;;
69401;SDS011;56589;51.992;5.924;2022-11-13T02:16:51;7.55;;;4.50;;
69401;SDS011;56589;51.992;5.924;2022-11-13T02:19:26;5.85;;;4.22;;
69401;SDS011;56589;51.992;5.924;2022-11-13T02:21:58;8.70;;;4.32;;
69401;SDS011;56589;51.992;5.924;2022-11-13T02:24:38;6.47;;;4.35;;
69401;SDS011;56589;51.992;5.924;2022-11-13T02:27:09;6.35;;;4.22;;
69401;SDS011;56589;51.992;5.924;2022-11-13T02:29:42;6.50;;;4.15;;
69401;SDS011;56589;51.992;5.924;2022-11-13T02:32:07;7.50;;;4.68;;
69401;SDS011;56589;51.992;5.924;2022-11-13T02:34:33;9.18;;;4.47;;
69401;SDS011;56589;51.992;5.924;2022-11-13T02:36:59;7.18;;;4.80;;
69401;SDS011;56589;51.992;5.924;2022-11-13T02:39:25;5.75;;;4.35;;
69401;SDS011;56589;51.992;5.924;2022-11-13T02:41:53;6.20;;;4.18;;
69401;SDS011;56589;51.992;5.924;2022-11-13T02:44:19;9.95;;;4.70;;
69401;SDS011;56589;51.992;5.924;2022-11-13T02:46:45;7.45;;;4.10;;
69401;SDS011;56589;51.992;5.924;2022-11-13T02:49:11;5.13;;;4.30;;
69401;SDS011;56589;51.992;5.924;2022-11-13T02:51:37;10.23;;;4.30;;
69401;SDS011;56589;51.992;5.924;2022-11-13T02:54:02;8.98;;;4.45;;
69401;SDS011;56589;51.992;5.924;2022-11-13T02:56:29;6.60;;;5.00;;
69401;SDS011;56589;51.992;5.924;2022-11-13T02:58:57;9.68;;;4.95;;
69401;SDS011;56589;51.992;5.924;2022-11-13T03:01:23;8.93;;;4.50;;
69401;SDS011;56589;51.992;5.924;2022-11-13T03:03:49;7.75;;;4.97;;
69401;SDS011;56589;51.992;5.924;2022-11-13T03:06:15;8.10;;;5.18;;
69401;SDS011;56589;51.992;5.924;2022-11-13T03:08:40;8.75;;;5.20;;
69401;SDS011;56589;51.992;5.924;2022-11-13T03:11:06;7.32;;;4.93;;
69401;SDS011;56589;51.992;5.924;2022-11-13T03:13:34;7.57;;;5.35;;
69401;SDS011;56589;51.992;5.924;2022-11-13T03:16:08;7.55;;;5.68;;
69401;SDS011;56589;51.992;5.924;2022-11-13T03:18:38;7.47;;;5.30;;
69401;SDS011;56589;51.992;5.924;2022-11-13T03:21:07;10.90;;;5.25;;
69401;SDS011;56589;51.992;5.924;2022-11-13T03:23:35;12.75;;;5.80;;
69401;SDS011;56589;51.992;5.924;2022-11-13T03:26:02;7.50;;;5.18;;
69401;SDS011;56589;51.992;5.924;2022-11-13T03:28:30;9.93;;;5.45;;
69401;SDS011;56589;51.992;5.924;2022-11-13T03:30:57;8.23;;;5.00;;
69401;SDS011;56589;51.992;5.924;2022-11-13T03:33:25;9.63;;;5.85;;
69401;SDS011;56589;51.992;5.924;2022-11-13T03:35:51;8.63;;;5.05;;
69401;SDS011;56589;51.992;5.924;2022-11-13T03:38:17;7.45;;;5.18;;
69401;SDS011;56589;51.992;5.924;2022-11-13T03:40:43;7.53;;;5.80;;
69401;SDS011;56589;51.992;5.924;2022-11-13T03:43:08;7.63;;;5.15;;
69401;SDS011;56589;51.992;5.924;2022-11-13T03:45:34;7.30;;;5.22;;
69401;SDS011;56589;51.992;5.924;2022-11-13T03:48:00;6.35;;;5.13;;
69401;SDS011;56589;51.992;5.924;2022-11-13T03:50:28;8.23;;;5.53;;
69401;SDS011;56589;51.992;5.924;2022-11-13T03:52:54;9.75;;;5.90;;
69401;SDS011;56589;51.992;5.924;2022-11-13T03:55:20;7.80;;;6.00;;
69401;SDS011;56589;51.992;5.924;2022-11-13T03:57:46;9.57;;;5.40;;
69401;SDS011;56589;51.992;5.924;2022-11-13T04:00:13;8.35;;;5.90;;
69401;SDS011;56589;51.992;5.924;2022-11-13T04:02:40;9.70;;;6.20;;
69401;SDS011;56589;51.992;5.924;2022-11-13T04:05:07;7.70;;;5.78;;
69401;SDS011;56589;51.992;5.924;2022-11-13T04:07:36;7.50;;;5.90;;
69401;SDS011;56589;51.992;5.924;2022-11-13T04:10:02;8.85;;;5.63;;
69401;SDS011;56589;51.992;5.924;2022-11-13T04:12:29;11.32;;;5.80;;
69401;SDS011;56589;51.992;5.924;2022-11-13T04:14:54;10.73;;;6.68;;
69401;SDS011;56589;51.992;5.924;2022-11-13T04:17:20;8.68;;;6.45;;
69401;SDS011;56589;51.992;5.924;2022-11-13T04:19:46;10.68;;;5.97;;
69401;SDS011;56589;51.992;5.924;2022-11-13T04:22:12;7.82;;;6.03;;
69401;SDS011;56589;51.992;5.924;2022-11-13T04:24:40;11.30;;;7.03;;
69401;SDS011;56589;51.992;5.924;2022-11-13T04:27:06;8.25;;;6.28;;
69401;SDS011;56589;51.992;5.924;2022-11-13T04:29:31;7.60;;;6.10;;
69401;SDS011;56589;51.992;5.924;2022-11-13T04:31:57;9.80;;;6.60;;
69401;SDS011;56589;51.992;5.924;2022-11-13T04:34:23;12.18;;;7.32;;
69401;SDS011;56589;51.992;5.924;2022-11-13T04:36:49;11.20;;;6.88;;
69401;SDS011;56589;51.992;5.924;2022-11-13T04:39:14;17.77;;;8.13;;
69401;SDS011;56589;51.992;5.924;2022-11-13T04:41:43;8.88;;;6.15;;
69401;SDS011;56589;51.992;5.924;2022-11-13T04:44:09;9.35;;;6.88;;
69401;SDS011;56589;51.992;5.924;2022-11-13T04:46:34;8.48;;;6.10;;
69401;SDS011;56589;51.992;5.924;2022-11-13T04:49:00;13.02;;;7.00;;
69401;SDS011;56589;51.992;5.924;2022-11-13T04:51:26;9.43;;;6.22;;
69401;SDS011;56589;51.992;5.924;2022-11-13T04:53:52;7.55;;;6.32;;
69401;SDS011;56589;51.992;5.924;2022-11-13T04:56:17;8.90;;;6.30;;
69401;SDS011;56589;51.992;5.924;2022-11-13T04:58:46;8.57;;;6.38;;
69401;SDS011;56589;51.992;5.924;2022-11-13T05:01:12;9.25;;;6.50;;
69401;SDS011;56589;51.992;5.924;2022-11-13T05:03:38;7.80;;;6.70;;
69401;SDS011;56589;51.992;5.924;2022-11-13T05:06:04;9.43;;;6.78;;
69401;SDS011;56589;51.992;5.924;2022-11-13T05:08:33;8.63;;;6.65;;
69401;SDS011;56589;51.992;5.924;2022-11-13T05:10:59;8.93;;;6.40;;
69401;SDS011;56589;51.992;5.924;2022-11-13T05:13:29;9.65;;;6.45;;
69401;SDS011;56589;51.992;5.924;2022-11-13T05:16:01;9.93;;;7.25;;
69401;SDS011;56589;51.992;5.924;2022-11-13T05:18:30;9.55;;;6.85;;
69401;SDS011;56589;51.992;5.924;2022-11-13T05:20:57;9.57;;;6.85;;
69401;SDS011;56589;51.992;5.924;2022-11-13T05:23:23;9.10;;;6.72;;
69401;SDS011;56589;51.992;5.924;2022-11-13T05:25:49;13.63;;;7.28;;
69401;SDS011;56589;51.992;5.924;2022-11-13T05:28:15;11.27;;;6.97;;
69401;SDS011;56589;51.992;5.924;2022-11-13T05:30:41;11.40;;;7.47;;
69401;SDS011;56589;51.992;5.924;2022-11-13T05:33:09;11.52;;;7.00;;
69401;SDS011;56589;51.992;5.924;2022-11-13T05:35:36;8.63;;;6.50;;
69401;SDS011;56589;51.992;5.924;2022-11-13T05:38:02;10.20;;;6.63;;
69401;SDS011;56589;51.992;5.924;2022-11-13T05:40:28;8.60;;;6.72;;
69401;SDS011;56589;51.992;5.924;2022-11-13T05:42:54;10.98;;;7.38;;
69401;SDS011;56589;51.992;5.924;2022-11-13T05:45:20;9.48;;;6.78;;
69401;SDS011;56589;51.992;5.924;2022-11-13T05:47:46;7.53;;;5.90;;
69401;SDS011;56589;51.992;5.924;2022-11-13T05:50:14;8.50;;;6.15;;
69401;SDS011;56589;51.992;5.924;2022-11-13T05:52:40;9.63;;;6.10;;
69401;SDS011;56589;51.992;5.924;2022-11-13T05:55:07;10.02;;;6.47;;
69401;SDS011;56589;51.992;5.924;2022-11-13T05:57:33;10.45;;;6.35;;
69401;SDS011;56589;51.992;5.924;2022-11-13T05:59:59;9.52;;;6.05;;
69401;SDS011;56589;51.992;5.924;2022-11-13T06:02:25;12.10;;;6.00;;
69401;SDS011;56589;51.992;5.924;2022-11-13T06:04:51;6.32;;;5.32;;
69401;SDS011;56589;51.992;5.924;2022-11-13T06:07:19;8.68;;;6.07;;
69401;SDS011;56589;51.992;5.924;2022-11-13T06:09:45;8.00;;;4.72;;
69401;SDS011;56589;51.992;5.924;2022-11-13T06:12:10;7.88;;;5.53;;
69401;SDS011;56589;51.992;5.924;2022-11-13T06:14:36;9.25;;;5.70;;
69401;SDS011;56589;51.992;5.924;2022-11-13T06:17:02;9.07;;;5.53;;
69401;SDS011;56589;51.992;5.924;2022-11-13T06:19:28;7.18;;;5.45;;
69401;SDS011;56589;51.992;5.924;2022-11-13T06:21:54;8.23;;;5.40;;
69401;SDS011;56589;51.992;5.924;2022-11-13T06:24:22;9.10;;;5.60;;
69401;SDS011;56589;51.992;5.924;2022-11-13T06:26:48;9.00;;;5.72;;
69401;SDS011;56589;51.992;5.924;2022-11-13T06:29:14;9.48;;;5.60;;
69401;SDS011;56589;51.992;5.924;2022-11-13T06:31:39;7.13;;;4.93;;
69401;SDS011;56589;51.992;5.924;2022-11-13T06:34:05;6.32;;;4.90;;
69401;SDS011;56589;51.992;5.924;2022-11-13T06:36:32;7.38;;;4.85;;
69401;SDS011;56589;51.992;5.924;2022-11-13T06:39:01;9.73;;;6.35;;
69401;SDS011;56589;51.992;5.924;2022-11-13T06:41:34;7.47;;;4.60;;
69401;SDS011;56589;51.992;5.924;2022-11-13T06:44:02;8.50;;;5.20;;
69401;SDS011;56589;51.992;5.924;2022-11-13T06:46:28;9.30;;;5.30;;
69401;SDS011;56589;51.992;5.924;2022-11-13T06:48:55;8.15;;;5.22;;
69401;SDS011;56589;51.992;5.924;2022-11-13T06:51:24;9.43;;;5.18;;
69401;SDS011;56589;51.992;5.924;2022-11-13T06:53:52;8.15;;;6.03;;
69401;SDS011;56589;51.992;5.924;2022-11-13T06:56:19;7.57;;;5.15;;
69401;SDS011;56589;51.992;5.924;2022-11-13T06:58:48;8.10;;;5.07;;
69401;SDS011;56589;51.992;5.924;2022-11-13T07:01:15;6.72;;;5.15;;
69401;SDS011;56589;51.992;5.924;2022-11-13T07:03:44;8.48;;;5.18;;
69401;SDS011;56589;51.992;5.924;2022-11-13T07:06:10;7.53;;;5.47;;
69401;SDS011;56589;51.992;5.924;2022-11-13T07:08:38;6.35;;;5.22;;
69401;SDS011;56589;51.992;5.924;2022-11-13T07:11:05;9.00;;;5.50;;
69401;SDS011;56589;51.992;5.924;2022-11-13T07:13:31;6.68;;;5.00;;
69401;SDS011;56589;51.992;5.924;2022-11-13T07:16:02;8.27;;;5.53;;
69401;SDS011;56589;51.992;5.924;2022-11-13T07:18:31;8.60;;;5.43;;
69401;SDS011;56589;51.992;5.924;2022-11-13T07:20:57;6.55;;;4.68;;
69401;SDS011;56589;51.992;5.924;2022-11-13T07:23:28;8.45;;;6.05;;
69401;SDS011;56589;51.992;5.924;2022-11-13T07:25:53;9.73;;;5.50;;
69401;SDS011;56589;51.992;5.924;2022-11-13T07:28:19;7.10;;;4.90;;
69401;SDS011;56589;51.992;5.924;2022-11-13T07:30:46;6.72;;;4.93;;
69401;SDS011;56589;51.992;5.924;2022-11-13T07:33:14;8.45;;;5.35;;
69401;SDS011;56589;51.992;5.924;2022-11-13T07:35:40;7.70;;;5.22;;
69401;SDS011;56589;51.992;5.924;2022-11-13T07:38:06;8.38;;;5.20;;
69401;SDS011;56589;51.992;5.924;2022-11-13T07:40:32;9.05;;;5.07;;
69401;SDS011;56589;51.992;5.924;2022-11-13T07:42:58;7.05;;;5.35;;
69401;SDS011;56589;51.992;5.924;2022-11-13T07:45:26;9.23;;;5.88;;
69401;SDS011;56589;51.992;5.924;2022-11-13T07:47:55;9.05;;;5.93;;
69401;SDS011;56589;51.992;5.924;2022-11-13T07:50:25;9.30;;;6.20;;
69401;SDS011;56589;51.992;5.924;2022-11-13T07:52:53;9.15;;;6.03;;
69401;SDS011;56589;51.992;5.924;2022-11-13T07:55:20;7.93;;;5.70;;
69401;SDS011;56589;51.992;5.924;2022-11-13T07:57:46;7.35;;;5.35;;
69401;SDS011;56589;51.992;5.924;2022-11-13T08:00:12;8.48;;;5.65;;
69401;SDS011;56589;51.992;5.924;2022-11-13T08:02:40;9.70;;;6.35;;
69401;SDS011;56589;51.992;5.924;2022-11-13T08:05:06;9.93;;;6.32;;
69401;SDS011;56589;51.992;5.924;2022-11-13T08:07:34;8.32;;;5.50;;
69401;SDS011;56589;51.992;5.924;2022-11-13T08:10:00;9.98;;;6.28;;
69401;SDS011;56589;51.992;5.924;2022-11-13T08:12:26;8.40;;;5.78;;
69401;SDS011;56589;51.992;5.924;2022-11-13T08:14:52;9.02;;;6.38;;
69401;SDS011;56589;51.992;5.924;2022-11-13T08:17:17;8.95;;;6.28;;
69401;SDS011;56589;51.992;5.924;2022-11-13T08:19:43;9.07;;;6.47;;
69401;SDS011;56589;51.992;5.924;2022-11-13T08:22:09;8.80;;;6.43;;
69401;SDS011;56589;51.992;5.924;2022-11-13T08:24:37;8.75;;;6.82;;
69401;SDS011;56589;51.992;5.924;2022-11-13T08:27:04;10.55;;;6.80;;
69401;SDS011;56589;51.992;5.924;2022-11-13T08:29:30;8.43;;;5.97;;
69401;SDS011;56589;51.992;5.924;2022-11-13T08:31:56;8.95;;;6.05;;
69401;SDS011;56589;51.992;5.924;2022-11-13T08:34:22;8.65;;;5.95;;
69401;SDS011;56589;51.992;5.924;2022-11-13T08:36:48;9.73;;;6.72;;
69401;SDS011;56589;51.992;5.924;2022-11-13T08:39:13;11.55;;;6.32;;
69401;SDS011;56589;51.992;5.924;2022-11-13T08:41:42;10.15;;;6.88;;
69401;SDS011;56589;51.992;5.924;2022-11-13T08:44:07;11.60;;;6.60;;
69401;SDS011;56589;51.992;5.924;2022-11-13T08:46:33;9.30;;;6.82;;
69401;SDS011;56589;51.992;5.924;2022-11-13T08:48:59;11.32;;;6.70;;
69401;SDS011;56589;51.992;5.924;2022-11-13T08:51:25;10.88;;;6.70;;
69401;SDS011;56589;51.992;5.924;2022-11-13T08:53:51;11.93;;;6.93;;
69401;SDS011;56589;51.992;5.924;2022-11-13T08:56:16;10.15;;;6.45;;
69401;SDS011;56589;51.992;5.924;2022-11-13T08:58:45;12.65;;;7.53;;
69401;SDS011;56589;51.992;5.924;2022-11-13T09:01:11;10.25;;;7.75;;
69401;SDS011;56589;51.992;5.924;2022-11-13T09:03:37;10.85;;;7.50;;
69401;SDS011;56589;51.992;5.924;2022-11-13T09:06:03;8.93;;;6.80;;
69401;SDS011;56589;51.992;5.924;2022-11-13T09:08:32;11.25;;;7.55;;
69401;SDS011;56589;51.992;5.924;2022-11-13T09:11:00;11.02;;;7.70;;
69401;SDS011;56589;51.992;5.924;2022-11-13T09:13:27;10.15;;;7.13;;
69401;SDS011;56589;51.992;5.924;2022-11-13T09:15:56;13.63;;;7.65;;
69401;SDS011;56589;51.992;5.924;2022-11-13T09:18:22;11.13;;;7.10;;
69401;SDS011;56589;51.992;5.924;2022-11-13T09:20:48;17.63;;;8.85;;
69401;SDS011;56589;51.992;5.924;2022-11-13T09:23:14;13.65;;;8.23;;
69401;SDS011;56589;51.992;5.924;2022-11-13T09:25:40;10.52;;;7.25;;
69401;SDS011;56589;51.992;5.924;2022-11-13T09:28:06;11.13;;;7.43;;
69401;SDS011;56589;51.992;5.924;2022-11-13T09:30:32;13.30;;;7.35;;
69401;SDS011;56589;51.992;5.924;2022-11-13T09:33:01;11.48;;;7.60;;
69401;SDS011;56589;51.992;5.924;2022-11-13T09:35:27;11.85;;;7.97;;
69401;SDS011;56589;51.992;5.924;2022-11-13T09:37:55;11.98;;;7.55;;
69401;SDS011;56589;51.992;5.924;2022-11-13T09:40:22;10.38;;;7.43;;
69401;SDS011;56589;51.992;5.924;2022-11-13T09:42:55;12.40;;;8.50;;
69401;SDS011;56589;51.992;5.924;2022-11-13T09:45:23;12.82;;;7.38;;
69401;SDS011;56589;51.992;5.924;2022-11-13T09:47:49;8.95;;;7.25;;
69401;SDS011;56589;51.992;5.924;2022-11-13T09:50:22;16.63;;;8.10;;
69401;SDS011;56589;51.992;5.924;2022-11-13T09:52:53;9.43;;;7.50;;
69401;SDS011;56589;51.992;5.924;2022-11-13T09:55:22;11.30;;;7.05;;
69401;SDS011;56589;51.992;5.924;2022-11-13T09:57:56;9.77;;;6.95;;
69401;SDS011;56589;51.992;5.924;2022-11-13T10:00:34;8.90;;;6.68;;
69401;SDS011;56589;51.992;5.924;2022-11-13T10:03:09;9.63;;;7.32;;
69401;SDS011;56589;51.992;5.924;2022-11-13T10:05:58;10.10;;;6.93;;
69401;SDS011;56589;51.992;5.924;2022-11-13T10:08:38;10.65;;;6.97;;
69401;SDS011;56589;51.992;5.924;2022-11-13T10:11:19;11.10;;;7.82;;
69401;SDS011;56589;51.992;5.924;2022-11-13T10:14:02;9.13;;;6.47;;
69401;SDS011;56589;51.992;5.924;2022-11-13T10:16:42;11.77;;;6.72;;
69401;SDS011;56589;51.992;5.924;2022-11-13T10:19:14;9.45;;;7.28;;
69401;SDS011;56589;51.992;5.924;2022-11-13T10:21:51;10.55;;;6.95;;
69401;SDS011;56589;51.992;5.924;2022-11-13T10:24:27;10.50;;;7.40;;
69401;SDS011;56589;51.992;5.924;2022-11-13T10:27:04;10.73;;;6.75;;
69401;SDS011;56589;51.992;5.924;2022-11-13T10:29:34;9.15;;;6.65;;
69401;SDS011;56589;51.992;5.924;2022-11-13T10:32:11;10.65;;;5.97;;
69401;SDS011;56589;51.992;5.924;2022-11-13T10:34:43;9.23;;;5.97;;
69401;SDS011;56589;51.992;5.924;2022-11-13T10:39:58;7.55;;;5.53;;
69401;SDS011;56589;51.992;5.924;2022-11-13T10:42:26;7.60;;;5.97;;
69401;SDS011;56589;51.992;5.924;2022-11-13T10:44:57;8.55;;;6.20;;
69401;SDS011;56589;51.992;5.924;2022-11-13T10:47:24;8.35;;;5.78;;
69401;SDS011;56589;51.992;5.924;2022-11-13T10:49:54;7.30;;;5.25;;
69401;SDS011;56589;51.992;5.924;2022-11-13T10:52:20;7.03;;;5.47;;
69401;SDS011;56589;51.992;5.924;2022-11-13T10:55:02;10.73;;;5.80;;
69401;SDS011;56589;51.992;5.924;2022-11-13T10:57:40;8.10;;;5.65;;
69401;SDS011;56589;51.992;5.924;2022-11-13T11:00:17;6.18;;;5.07;;
69401;SDS011;56589;51.992;5.924;2022-11-13T11:02:47;8.23;;;5.80;;
69401;SDS011;56589;51.992;5.924;2022-11-13T11:05:15;8.18;;;5.35;;
69401;SDS011;56589;51.992;5.924;2022-11-13T11:07:46;11.45;;;5.90;;
69401;SDS011;56589;51.992;5.924;2022-11-13T11:10:20;8.32;;;6.03;;
69401;SDS011;56589;51.992;5.924;2022-11-13T11:12:56;9.13;;;5.78;;
69401;SDS011;56589;51.992;5.924;2022-11-13T11:15:32;11.18;;;6.45;;
69401;SDS011;56589;51.992;5.924;2022-11-13T11:18:11;7.78;;;5.53;;
69401;SDS011;56589;51.992;5.924;2022-11-13T11:20:49;10.52;;;5.38;;
69401;SDS011;56589;51.992;5.924;2022-11-13T11:23:24;7.90;;;5.55;;
69401;SDS011;56589;51.992;5.924;2022-11-13T11:26:02;9.70;;;6.50;;
69401;SDS011;56589;51.992;5.924;2022-11-13T11:28:38;9.00;;;5.85;;
69401;SDS011;56589;51.992;5.924;2022-11-13T11:31:14;6.43;;;5.20;;
69401;SDS011;56589;51.992;5.924;2022-11-13T11:33:48;7.03;;;5.28;;
69401;SDS011;56589;51.992;5.924;2022-11-13T11:36:21;6.35;;;5.18;;
69401;SDS011;56589;51.992;5.924;2022-11-13T11:38:58;6.45;;;4.93;;
69401;SDS011;56589;51.992;5.924;2022-11-13T11:41:37;6.93;;;5.40;;
69401;SDS011;56589;51.992;5.924;2022-11-13T11:44:18;8.63;;;5.22;;
69401;SDS011;56589;51.992;5.924;2022-11-13T11:47:02;9.20;;;5.38;;
69401;SDS011;56589;51.992;5.924;2022-11-13T11:49:28;8.73;;;5.80;;
69401;SDS011;56589;51.992;5.924;2022-11-13T11:51:57;10.85;;;6.07;;
69401;SDS011;56589;51.992;5.924;2022-11-13T11:54:47;8.40;;;6.28;;
69401;SDS011;56589;51.992;5.924;2022-11-13T11:57:33;7.55;;;5.55;;
69401;SDS011;56589;51.992;5.924;2022-11-13T12:00:14;7.45;;;4.97;;
69401;SDS011;56589;51.992;5.924;2022-11-13T12:02:49;6.95;;;5.70;;
69401;SDS011;56589;51.992;5.924;2022-11-13T12:05:48;5.93;;;5.32;;
69401;SDS011;56589;51.992;5.924;2022-11-13T12:08:37;6.25;;;4.90;;
69401;SDS011;56589;51.992;5.924;2022-11-13T12:11:16;7.70;;;5.70;;
69401;SDS011;56589;51.992;5.924;2022-11-13T12:13:53;6.50;;;5.50;;
69401;SDS011;56589;51.992;5.924;2022-11-13T12:16:42;7.32;;;5.65;;
69401;SDS011;56589;51.992;5.924;2022-11-13T12:19:26;6.25;;;4.97;;
69401;SDS011;56589;51.992;5.924;2022-11-13T12:22:17;8.35;;;5.28;;
69401;SDS011;56589;51.992;5.924;2022-11-13T12:25:05;12.75;;;5.45;;
69401;SDS011;56589;51.992;5.924;2022-11-13T12:27:48;7.88;;;4.72;;
69401;SDS011;56589;51.992;5.924;2022-11-13T12:30:34;6.25;;;4.85;;
69401;SDS011;56589;51.992;5.924;2022-11-13T12:33:22;6.85;;;4.63;;
69401;SDS011;56589;51.992;5.924;2022-11-13T12:35:58;7.22;;;4.55;;
69401;SDS011;56589;51.992;5.924;2022-11-13T12:38:29;8.02;;;4.78;;
69401;SDS011;56589;51.992;5.924;2022-11-13T12:41:12;6.40;;;4.80;;
69401;SDS011;56589;51.992;5.924;2022-11-13T12:43:58;7.50;;;4.03;;
69401;SDS011;56589;51.992;5.924;2022-11-13T12:46:46;9.02;;;4.75;;
69401;SDS011;56589;51.992;5.924;2022-11-13T12:49:14;5.63;;;3.83;;
69401;SDS011;56589;51.992;5.924;2022-11-13T12:51:53;6.57;;;3.88;;
69401;SDS011;56589;51.992;5.924;2022-11-13T12:54:25;6.15;;;3.63;;
69401;SDS011;56589;51.992;5.924;2022-11-13T12:57:03;6.82;;;4.40;;
69401;SDS011;56589;51.992;5.924;2022-11-13T12:59:34;4.57;;;3.47;;
69401;SDS011;56589;51.992;5.924;2022-11-13T13:02:14;5.57;;;3.67;;
69401;SDS011;56589;51.992;5.924;2022-11-13T13:04:58;6.03;;;3.85;;
69401;SDS011;56589;51.992;5.924;2022-11-13T13:07:51;5.07;;;3.92;;
69401;SDS011;56589;51.992;5.924;2022-11-13T13:13:48;5.95;;;4.50;;
69401;SDS011;56589;51.992;5.924;2022-11-13T13:16:32;6.47;;;4.07;;
69401;SDS011;56589;51.992;5.924;2022-11-13T13:19:05;5.82;;;4.07;;
69401;SDS011;56589;51.992;5.924;2022-11-13T13:21:38;6.20;;;3.83;;
69401;SDS011;56589;51.992;5.924;2022-11-13T13:24:06;5.80;;;4.10;;
69401;SDS011;56589;51.992;5.924;2022-11-13T13:26:50;7.10;;;4.18;;
69401;SDS011;56589;51.992;5.924;2022-11-13T13:29:18;6.57;;;4.00;;
69401;SDS011;56589;51.992;5.924;2022-11-13T13:31:52;5.57;;;4.15;;
69401;SDS011;56589;51.992;5.924;2022-11-13T13:34:31;6.10;;;3.33;;
69401;SDS011;56589;51.992;5.924;2022-11-13T13:37:12;4.82;;;3.90;;
69401;SDS011;56589;51.992;5.924;2022-11-13T13:39:55;3.90;;;3.22;;
69401;SDS011;56589;51.992;5.924;2022-11-13T13:42:40;5.47;;;3.65;;
69401;SDS011;56589;51.992;5.924;2022-11-13T13:45:26;5.25;;;3.45;;
69401;SDS011;56589;51.992;5.924;2022-11-13T13:48:11;5.57;;;3.70;;
69401;SDS011;56589;51.992;5.924;2022-11-13T13:50:43;4.05;;;3.30;;
69401;SDS011;56589;51.992;5.924;2022-11-13T13:53:13;4.07;;;3.20;;
69401;SDS011;56589;51.992;5.924;2022-11-13T13:58:14;9.40;;;3.40;;
69401;SDS011;56589;51.992;5.924;2022-11-13T14:00:53;7.82;;;3.05;;
69401;SDS011;56589;51.992;5.924;2022-11-13T14:03:24;6.72;;;3.97;;
69401;SDS011;56589;51.992;5.924;2022-11-13T14:05:51;7.15;;;3.35;;
69401;SDS011;56589;51.992;5.924;2022-11-13T14:08:17;8.43;;;2.85;;
69401;SDS011;56589;51.992;5.924;2022-11-13T14:10:48;4.57;;;2.70;;
69401;SDS011;56589;51.992;5.924;2022-11-13T14:13:22;4.82;;;3.15;;
69401;SDS011;56589;51.992;5.924;2022-11-13T14:15:58;3.65;;;2.70;;
69401;SDS011;56589;51.992;5.924;2022-11-13T14:18:28;3.72;;;2.55;;
69401;SDS011;56589;51.992;5.924;2022-11-13T14:20:55;4.65;;;2.58;;
69401;SDS011;56589;51.992;5.924;2022-11-13T14:23:26;7.00;;;2.67;;
69401;SDS011;56589;51.992;5.924;2022-11-13T14:25:59;4.63;;;2.97;;
69401;SDS011;56589;51.992;5.924;2022-11-13T14:28:27;6.82;;;3.15;;
69401;SDS011;56589;51.992;5.924;2022-11-13T14:30:59;4.38;;;3.15;;
69401;SDS011;56589;51.992;5.924;2022-11-13T14:33:33;5.18;;;3.00;;
69401;SDS011;56589;51.992;5.924;2022-11-13T14:36:04;4.10;;;2.83;;
69401;SDS011;56589;51.992;5.924;2022-11-13T14:38:32;7.57;;;3.40;;
69401;SDS011;56589;51.992;5.924;2022-11-13T14:41:05;4.25;;;2.72;;
69401;SDS011;56589;51.992;5.924;2022-11-13T14:43:46;6.82;;;3.03;;
69401;SDS011;56589;51.992;5.924;2022-11-13T14:46:24;5.15;;;3.00;;
69401;SDS011;56589;51.992;5.924;2022-11-13T14:48:56;5.03;;;2.50;;
69401;SDS011;56589;51.992;5.924;2022-11-13T14:51:23;5.05;;;2.53;;
69401;SDS011;56589;51.992;5.924;2022-11-13T14:53:57;3.45;;;2.35;;
69401;SDS011;56589;51.992;5.924;2022-11-13T14:56:32;4.60;;;2.70;;
69401;SDS011;56589;51.992;5.924;2022-11-13T14:59:08;5.53;;;2.50;;
69401;SDS011;56589;51.992;5.924;2022-11-13T15:01:38;5.03;;;1.85;;
69401;SDS011;56589;51.992;5.924;2022-11-13T15:04:07;6.07;;;2.30;;
69401;SDS011;56589;51.992;5.924;2022-11-13T15:06:33;3.05;;;2.20;;
69401;SDS011;56589;51.992;5.924;2022-11-13T15:09:02;5.75;;;2.47;;
69401;SDS011;56589;51.992;5.924;2022-11-13T15:11:35;7.25;;;3.17;;